createdAt,value
2022-10-14T00:01:42.989Z,51.78
2022-10-14T00:04:09.491Z,57.28
2022-10-14T00:06:35.936Z,55.95
2022-10-14T00:09:06.956Z,51.83
2022-10-14T00:11:35.077Z,72.45
2022-10-14T00:14:12.275Z,57.05
2022-10-14T00:16:41.139Z,50.30
2022-10-14T00:19:08.090Z,51.63
2022-10-14T00:21:35.442Z,52.53
2022-10-14T00:24:01.890Z,54.17
2022-10-14T00:26:31.608Z,48.55
2022-10-14T00:28:59.362Z,53.05
2022-10-14T00:31:26.878Z,52.30
2022-10-14T00:33:53.322Z,50.85
2022-10-14T00:36:21.444Z,52.65
2022-10-14T00:38:48.728Z,50.67
2022-10-14T00:41:22.145Z,51.92
2022-10-14T00:43:59.490Z,45.92
2022-10-14T00:46:28.099Z,49.92
2022-10-14T00:48:55.801Z,44.58
2022-10-14T00:51:22.432Z,50.95
2022-10-14T00:53:48.927Z,57.03
2022-10-14T00:56:21.280Z,50.95
2022-10-14T00:58:47.904Z,55.70
2022-10-14T01:01:14.295Z,45.58
2022-10-14T01:03:41.228Z,46.30
2022-10-14T01:06:19.142Z,53.83
2022-10-14T01:09:14.823Z,47.70
2022-10-14T01:12:30.169Z,51.58
2022-10-14T01:15:22.798Z,43.33
2022-10-14T01:18:54.074Z,49.05
2022-10-14T01:21:36.512Z,46.00
2022-10-14T01:24:43.213Z,44.22
2022-10-14T01:27:18.321Z,47.55
2022-10-14T01:30:06.940Z,51.60
2022-10-14T01:32:38.279Z,45.47
2022-10-14T01:35:46.685Z,48.10
2022-10-14T01:38:21.968Z,46.50
2022-10-14T01:41:17.743Z,37.05
2022-10-14T01:43:48.481Z,45.47
2022-10-14T01:46:17.516Z,42.10
2022-10-14T01:48:50.833Z,38.50
2022-10-14T01:51:24.928Z,36.00
2022-10-14T01:53:57.933Z,42.78
2022-10-14T01:56:27.894Z,40.95
2022-10-14T01:58:54.970Z,41.05
2022-10-14T02:01:21.550Z,46.70
2022-10-14T02:03:48.441Z,35.85
2022-10-14T02:06:30.025Z,39.03
2022-10-14T02:09:14.915Z,43.40
2022-10-14T02:11:59.037Z,49.92
2022-10-14T02:14:39.095Z,47.80
2022-10-14T02:17:21.677Z,47.85
2022-10-14T02:19:57.797Z,44.72
2022-10-14T02:22:36.416Z,48.78
2022-10-14T02:25:18.635Z,47.20
2022-10-14T02:27:48.156Z,45.90
2022-10-14T02:30:16.565Z,44.10
2022-10-14T02:32:44.829Z,50.25
2022-10-14T02:35:15.485Z,44.67
2022-10-14T02:37:42.126Z,39.03
2022-10-14T02:40:13.676Z,47.20
2022-10-14T02:42:40.089Z,41.33
2022-10-14T02:45:08.758Z,44.80
2022-10-14T02:47:35.174Z,39.80
2022-10-14T02:50:01.684Z,39.13
2022-10-14T02:52:28.155Z,37.30
2022-10-14T02:54:54.559Z,39.85
2022-10-14T02:57:20.997Z,40.60
2022-10-14T02:59:47.785Z,44.28
2022-10-14T03:02:14.262Z,50.38
2022-10-14T03:04:40.734Z,42.30
2022-10-14T03:07:07.181Z,43.00
2022-10-14T03:09:33.625Z,41.78
2022-10-14T03:12:00.124Z,43.63
2022-10-14T03:14:26.623Z,42.95
2022-10-14T03:16:53.051Z,48.33
2022-10-14T03:19:19.495Z,47.90
2022-10-14T03:21:46.037Z,48.28
2022-10-14T03:24:12.621Z,49.63
2022-10-14T03:26:39.038Z,42.22
2022-10-14T03:29:05.487Z,49.15
2022-10-14T03:31:31.887Z,41.92
2022-10-14T03:33:58.325Z,39.20
2022-10-14T03:36:24.870Z,41.50
2022-10-14T03:38:51.273Z,43.75
2022-10-14T03:41:17.759Z,39.65
2022-10-14T03:43:44.164Z,44.92
2022-10-14T03:46:10.593Z,33.97
2022-10-14T03:48:37.401Z,36.55
2022-10-14T03:51:03.905Z,35.83
2022-10-14T03:53:30.322Z,38.70
2022-10-14T03:55:56.800Z,40.28
2022-10-14T03:58:23.209Z,54.42
2022-10-14T04:00:49.684Z,41.15
2022-10-14T04:03:16.140Z,38.25
2022-10-14T04:05:42.628Z,36.35
2022-10-14T04:08:09.160Z,38.53
2022-10-14T04:10:35.679Z,43.30
2022-10-14T04:13:02.143Z,40.75
2022-10-14T04:15:28.638Z,39.65
2022-10-14T04:17:56.090Z,40.15
2022-10-14T04:20:22.560Z,44.47
2022-10-14T04:22:48.973Z,41.53
2022-10-14T04:25:15.466Z,33.55
2022-10-14T04:27:41.863Z,41.88
2022-10-14T04:30:09.889Z,38.22
2022-10-14T04:32:36.322Z,39.17
2022-10-14T04:35:02.864Z,37.15
2022-10-14T04:37:30.315Z,41.00
2022-10-14T04:39:56.755Z,45.40
2022-10-14T04:42:23.563Z,33.47
2022-10-14T04:44:50.610Z,37.05
2022-10-14T04:47:17.040Z,33.78
2022-10-14T04:49:43.461Z,39.47
2022-10-14T04:52:09.884Z,40.35
2022-10-14T04:54:36.292Z,37.50
2022-10-14T04:57:02.805Z,41.40
2022-10-14T04:59:29.270Z,40.17
2022-10-14T05:01:55.790Z,40.53
2022-10-14T05:04:22.477Z,45.50
2022-10-14T05:06:48.974Z,41.03
2022-10-14T05:09:15.369Z,36.20
2022-10-14T05:11:41.843Z,39.33
2022-10-14T05:14:08.278Z,44.25
2022-10-14T05:16:34.763Z,38.80
2022-10-14T05:19:01.153Z,41.72
2022-10-14T05:21:27.605Z,38.75
2022-10-14T05:23:54.023Z,37.55
2022-10-14T05:26:20.449Z,38.28
2022-10-14T05:28:46.941Z,38.33
2022-10-14T05:31:13.499Z,42.28
2022-10-14T05:33:39.947Z,40.10
2022-10-14T05:36:06.896Z,41.35
2022-10-14T05:38:34.148Z,39.80
2022-10-14T05:41:00.752Z,32.20
2022-10-14T05:43:32.108Z,36.67
2022-10-14T05:45:59.869Z,31.80
2022-10-14T05:48:26.404Z,36.28
2022-10-14T05:50:52.926Z,34.88
2022-10-14T05:53:19.482Z,29.25
2022-10-14T05:55:45.900Z,29.02
2022-10-14T05:58:12.308Z,28.88
2022-10-14T06:00:38.813Z,33.20
2022-10-14T06:03:05.555Z,33.95
2022-10-14T06:05:36.434Z,42.65
2022-10-14T06:08:03.235Z,28.65
2022-10-14T06:10:29.663Z,30.40
2022-10-14T06:12:56.731Z,35.83
2022-10-14T06:15:23.226Z,33.95
2022-10-14T06:17:49.647Z,57.08
2022-10-14T06:20:16.073Z,45.25
2022-10-14T06:22:42.501Z,32.30
2022-10-14T06:25:09.413Z,37.90
2022-10-14T06:27:35.819Z,35.50
2022-10-14T06:30:02.369Z,44.40
2022-10-14T06:32:28.828Z,42.60
2022-10-14T06:34:55.343Z,45.35
2022-10-14T06:37:21.784Z,51.72
2022-10-14T06:39:48.203Z,43.97
2022-10-14T06:42:14.810Z,50.25
2022-10-14T06:44:41.258Z,40.78
2022-10-14T06:47:08.069Z,41.03
2022-10-14T06:49:34.755Z,39.47
2022-10-14T06:52:01.324Z,40.00
2022-10-14T06:54:27.807Z,40.10
2022-10-14T06:56:55.377Z,41.05
2022-10-14T06:59:21.921Z,36.08
2022-10-14T07:01:48.378Z,35.30
2022-10-14T07:04:14.803Z,45.53
2022-10-14T07:06:41.636Z,41.90
2022-10-14T07:09:08.070Z,40.15
2022-10-14T07:11:34.475Z,42.03
2022-10-14T07:14:00.945Z,44.25
2022-10-14T07:16:28.225Z,48.05
2022-10-14T07:18:54.716Z,45.47
2022-10-14T07:21:21.187Z,49.80
2022-10-14T07:23:47.641Z,41.13
2022-10-14T07:26:14.104Z,44.75
2022-10-14T07:28:40.598Z,44.53
2022-10-14T07:31:09.978Z,48.65
2022-10-14T07:36:16.078Z,47.83
2022-10-14T07:38:45.316Z,49.63
2022-10-14T07:41:18.082Z,49.13
2022-10-14T07:43:46.965Z,44.85
2022-10-14T07:46:14.541Z,56.85
2022-10-14T07:48:57.588Z,49.08
2022-10-14T07:51:25.135Z,44.22
2022-10-14T07:53:53.057Z,44.70
2022-10-14T07:56:19.930Z,39.20
2022-10-14T07:58:46.612Z,40.08
2022-10-14T08:01:15.276Z,46.13
2022-10-14T08:03:43.026Z,37.80
2022-10-14T08:06:09.783Z,39.20
2022-10-14T08:08:36.315Z,42.03
2022-10-14T08:11:13.268Z,50.22
2022-10-14T08:13:43.526Z,40.40
2022-10-14T08:16:26.996Z,55.92
2022-10-14T08:18:56.166Z,55.15
2022-10-14T08:21:22.713Z,53.65
2022-10-14T08:23:49.613Z,63.42
2022-10-14T08:26:36.240Z,62.05
2022-10-14T08:29:06.453Z,59.22
2022-10-14T08:31:33.788Z,60.13
2022-10-14T08:34:00.450Z,70.00
2022-10-14T08:36:26.953Z,62.58
2022-10-14T08:38:54.452Z,71.18
2022-10-14T08:41:38.941Z,73.30
2022-10-14T08:44:27.257Z,67.60
2022-10-14T08:46:59.270Z,67.72
2022-10-14T08:50:01.645Z,66.88
2022-10-14T08:52:36.461Z,71.97
2022-10-14T08:55:35.482Z,72.32
2022-10-14T08:58:16.082Z,66.90
2022-10-14T09:00:47.596Z,72.40
2022-10-14T09:03:20.578Z,71.43
2022-10-14T09:05:57.520Z,71.65
2022-10-14T09:08:30.934Z,75.90
2022-10-14T09:10:58.381Z,68.30
2022-10-14T09:13:35.027Z,66.95
2022-10-14T09:16:25.510Z,65.82
2022-10-14T09:18:58.012Z,72.20
2022-10-14T09:21:53.564Z,62.75
2022-10-14T09:24:26.847Z,68.38
2022-10-14T09:27:21.870Z,71.20
2022-10-14T09:29:59.086Z,76.55
2022-10-14T09:32:46.538Z,79.85
2022-10-14T09:35:17.157Z,68.78
2022-10-14T09:37:43.623Z,73.13
2022-10-14T09:40:13.196Z,80.43
2022-10-14T09:42:39.538Z,78.97
2022-10-14T09:45:08.834Z,80.35
2022-10-14T09:47:45.640Z,81.43
2022-10-14T09:50:22.068Z,82.32
2022-10-14T09:53:02.381Z,79.22
2022-10-14T09:55:29.775Z,78.07
2022-10-14T09:58:17.055Z,76.32
2022-10-14T10:00:45.892Z,82.28
2022-10-14T10:03:32.609Z,80.28
2022-10-14T10:06:10.857Z,79.63
2022-10-14T10:08:54.337Z,80.53
2022-10-14T10:11:46.941Z,76.00
2022-10-14T10:14:22.184Z,74.85
2022-10-14T10:19:32.094Z,78.05
2022-10-14T10:22:24.169Z,81.88
2022-10-14T10:25:12.129Z,88.07
2022-10-14T10:27:45.653Z,77.90
2022-10-14T10:30:15.285Z,83.25
2022-10-14T10:32:47.548Z,79.88
2022-10-14T10:35:29.661Z,88.82
2022-10-14T10:38:20.512Z,77.93
2022-10-14T10:41:18.693Z,84.13
2022-10-14T10:44:02.301Z,88.47
2022-10-14T10:47:09.696Z,82.78
2022-10-14T10:50:01.912Z,83.13
2022-10-14T10:53:07.051Z,92.13
2022-10-14T10:55:54.039Z,84.22
2022-10-14T10:58:20.711Z,81.55
2022-10-14T11:01:01.226Z,81.50
2022-10-14T11:03:58.899Z,87.20
2022-10-14T11:06:50.119Z,81.78
2022-10-14T11:12:29.714Z,80.15
2022-10-14T11:15:15.723Z,78.57
2022-10-14T11:18:02.227Z,93.38
2022-10-14T11:20:50.547Z,79.32
2022-10-14T11:23:57.095Z,93.53
2022-10-14T11:26:41.501Z,83.82
2022-10-14T11:29:22.935Z,82.85
2022-10-14T11:32:05.169Z,91.53
2022-10-14T11:34:38.020Z,94.28
2022-10-14T11:37:31.910Z,84.65
2022-10-14T11:40:02.738Z,86.05
2022-10-14T11:42:48.442Z,87.65
2022-10-14T11:45:35.144Z,91.88
2022-10-14T11:48:21.753Z,111.80
2022-10-14T11:50:56.224Z,102.50
2022-10-14T11:53:44.348Z,87.95
2022-10-14T11:56:23.949Z,85.95
2022-10-14T11:58:53.079Z,85.40
2022-10-14T12:01:26.484Z,87.30
2022-10-14T12:04:15.264Z,96.05
2022-10-14T12:06:49.008Z,98.90
2022-10-14T12:09:57.415Z,78.43
2022-10-14T12:12:29.121Z,95.75
2022-10-14T12:15:04.320Z,96.70
2022-10-14T12:17:39.151Z,94.30
2022-10-14T12:20:18.194Z,83.60
2022-10-14T12:22:49.394Z,85.25
2022-10-14T12:25:21.516Z,78.47
2022-10-14T12:27:50.119Z,73.32
2022-10-14T12:30:37.322Z,89.45
2022-10-14T12:33:09.453Z,82.03
2022-10-14T12:35:50.107Z,98.13
2022-10-14T12:38:16.524Z,80.72
2022-10-14T12:40:43.040Z,68.43
2022-10-14T12:43:12.424Z,72.78
2022-10-14T12:46:07.331Z,78.40
2022-10-14T12:48:36.169Z,65.28
2022-10-14T12:51:21.987Z,86.68
2022-10-14T12:53:57.986Z,75.40
2022-10-14T12:56:53.527Z,66.20
2022-10-14T12:59:28.517Z,97.47
2022-10-14T13:02:01.308Z,82.90
2022-10-14T13:04:28.613Z,74.82
2022-10-14T13:07:35.729Z,73.55
2022-10-14T13:10:26.972Z,75.60
2022-10-14T13:12:53.871Z,66.05
2022-10-14T13:15:36.068Z,59.13
2022-10-14T13:18:39.930Z,76.57
2022-10-14T13:21:08.816Z,70.80
2022-10-14T13:23:49.454Z,68.60
2022-10-14T13:26:21.698Z,81.18
2022-10-14T13:28:53.815Z,72.70
2022-10-14T13:31:27.927Z,70.20
2022-10-14T13:34:08.037Z,77.95
2022-10-14T13:36:39.825Z,81.17
2022-10-14T13:39:09.544Z,74.75
2022-10-14T13:41:37.807Z,74.55
2022-10-14T13:44:04.398Z,71.90
2022-10-14T13:46:41.595Z,70.00
2022-10-14T13:51:55.010Z,73.85
2022-10-14T13:54:23.925Z,76.28
2022-10-14T14:00:37.882Z,70.18
2022-10-14T14:02:34.908Z,72.20
2022-10-14T14:05:01.949Z,77.20
2022-10-14T14:07:59.596Z,78.40
2022-10-14T14:10:24.321Z,74.45
2022-10-14T14:12:51.384Z,72.95
2022-10-14T14:15:26.634Z,74.32
2022-10-14T14:17:53.835Z,80.65
2022-10-14T14:20:23.373Z,82.20
2022-10-14T14:22:50.417Z,82.15
2022-10-14T14:25:38.161Z,81.32
2022-10-14T14:28:06.898Z,77.13
2022-10-14T14:30:38.975Z,83.38
2022-10-14T14:33:12.223Z,79.07
2022-10-14T14:35:40.709Z,90.10
2022-10-14T14:38:24.218Z,83.43
2022-10-14T14:41:02.713Z,80.28
2022-10-14T14:43:34.735Z,88.05
2022-10-14T14:46:02.976Z,78.88
2022-10-14T14:48:30.892Z,93.95
2022-10-14T14:50:58.651Z,93.70
2022-10-14T14:53:29.578Z,84.78
2022-10-14T14:58:24.851Z,80.93
2022-10-14T15:00:54.046Z,86.28
2022-10-14T15:03:22.886Z,70.00
2022-10-14T15:06:00.494Z,78.35
2022-10-14T15:08:37.765Z,68.63
2022-10-14T15:11:04.627Z,81.40
2022-10-14T15:13:40.464Z,80.60
2022-10-14T15:16:08.575Z,63.80
2022-10-14T15:18:37.522Z,77.55
2022-10-14T15:21:19.130Z,69.50
2022-10-14T15:24:00.339Z,65.55
2022-10-14T15:26:35.269Z,63.78
2022-10-14T15:29:07.744Z,62.97
2022-10-14T15:31:35.913Z,63.53
2022-10-14T15:34:03.349Z,64.32
2022-10-14T15:36:34.788Z,69.38
2022-10-14T15:39:02.463Z,64.30
2022-10-14T15:41:29.164Z,66.72
2022-10-14T15:43:55.724Z,57.78
2022-10-14T15:46:41.587Z,74.82
2022-10-14T15:49:25.592Z,57.40
2022-10-14T15:51:52.026Z,62.67
2022-10-14T15:54:18.462Z,70.38
2022-10-14T15:56:46.259Z,70.53
2022-10-14T15:59:15.475Z,67.03
2022-10-14T16:01:42.868Z,71.78
2022-10-14T16:04:19.632Z,73.85
2022-10-14T16:06:46.788Z,72.32
2022-10-14T16:09:13.734Z,74.40
2022-10-14T16:11:40.219Z,67.75
2022-10-14T16:14:08.123Z,69.13
2022-10-14T16:16:40.532Z,65.22
2022-10-14T16:19:06.957Z,67.22
2022-10-14T16:21:33.591Z,62.75
2022-10-14T16:24:02.211Z,73.13
2022-10-14T16:26:29.360Z,57.60
2022-10-14T16:28:55.958Z,68.15
2022-10-14T16:31:23.085Z,57.90
2022-10-14T16:33:50.877Z,65.35
2022-10-14T16:36:17.482Z,65.43
2022-10-14T16:38:44.268Z,68.75
2022-10-14T16:41:11.747Z,63.55
2022-10-14T16:43:38.927Z,68.25
2022-10-14T16:46:07.503Z,65.72
2022-10-14T16:48:36.069Z,67.13
2022-10-14T16:51:03.520Z,69.53
2022-10-14T16:53:48.803Z,64.70
2022-10-14T16:56:38.913Z,69.63
2022-10-14T16:59:08.152Z,67.25
2022-10-14T17:01:34.697Z,70.43
2022-10-14T17:04:01.192Z,75.82
2022-10-14T17:06:27.622Z,78.22
2022-10-14T17:08:54.668Z,72.65
2022-10-14T17:11:21.328Z,63.83
2022-10-14T17:13:52.175Z,79.10
2022-10-14T17:16:18.609Z,80.00
2022-10-14T17:18:45.074Z,84.25
2022-10-14T17:21:12.224Z,75.13
2022-10-14T17:23:42.059Z,74.35
2022-10-14T17:26:11.952Z,74.13
2022-10-14T17:28:38.893Z,73.18
2022-10-14T17:31:10.692Z,65.40
2022-10-14T17:33:40.497Z,70.25
2022-10-14T17:36:07.832Z,69.43
2022-10-14T17:38:35.631Z,68.40
2022-10-14T17:41:09.769Z,69.28
2022-10-14T17:43:37.196Z,74.28
2022-10-14T17:48:42.253Z,83.65
2022-10-14T17:51:12.994Z,82.22
2022-10-14T17:53:40.201Z,81.32
2022-10-14T17:56:11.945Z,78.70
2022-10-14T17:58:38.873Z,79.65
2022-10-14T18:01:08.498Z,74.03
2022-10-14T18:03:36.949Z,67.38
2022-10-14T18:06:12.149Z,82.72
2022-10-14T18:08:40.233Z,77.28
2022-10-14T18:11:10.856Z,85.55
2022-10-14T18:16:13.125Z,74.80
2022-10-14T18:18:40.449Z,76.28
2022-10-14T18:21:07.622Z,77.47
2022-10-14T18:23:38.720Z,89.07
2022-10-14T18:28:43.104Z,80.85
2022-10-14T18:31:12.271Z,83.65
2022-10-14T18:33:39.803Z,78.47
2022-10-14T18:36:08.138Z,80.75
2022-10-14T18:38:35.162Z,76.03
2022-10-14T18:41:05.230Z,73.47
2022-10-14T18:43:32.548Z,78.82
2022-10-14T18:46:04.905Z,77.85
2022-10-14T18:48:31.695Z,86.38
2022-10-14T18:50:59.494Z,75.43
2022-10-14T18:53:26.608Z,79.15
2022-10-14T18:55:56.710Z,80.47
2022-10-14T18:58:26.012Z,74.68
2022-10-14T19:00:52.812Z,71.93
2022-10-14T19:03:19.293Z,80.25
2022-10-14T19:05:47.094Z,76.40
2022-10-14T19:10:45.410Z,74.47
2022-10-14T19:13:12.186Z,76.80
2022-10-14T19:15:45.333Z,78.28
2022-10-14T19:18:14.197Z,79.75
2022-10-14T19:20:41.832Z,72.03
2022-10-14T19:23:08.900Z,68.93
2022-10-14T19:25:36.366Z,70.00
2022-10-14T19:28:02.881Z,72.63
2022-10-14T19:30:29.288Z,73.70
2022-10-14T19:32:55.702Z,84.95
2022-10-14T19:35:22.134Z,76.07
2022-10-14T19:37:48.708Z,86.35
2022-10-14T19:40:18.660Z,76.70
2022-10-14T19:42:47.871Z,70.70
2022-10-14T19:45:14.338Z,82.78
2022-10-14T19:47:40.785Z,83.18
2022-10-14T19:50:07.656Z,67.45
2022-10-14T19:52:34.098Z,85.10
2022-10-14T19:55:00.669Z,79.60
2022-10-14T19:57:27.376Z,78.78
2022-10-14T19:59:53.971Z,80.13
2022-10-14T20:02:20.484Z,81.47
2022-10-14T20:04:46.908Z,76.35
2022-10-14T20:07:13.583Z,74.65
2022-10-14T20:09:40.001Z,86.90
2022-10-14T20:12:07.049Z,71.85
2022-10-14T20:14:33.473Z,78.95
2022-10-14T20:17:01.620Z,80.13
2022-10-14T20:19:28.044Z,99.90
2022-10-14T20:21:54.613Z,103.45
2022-10-14T20:24:21.075Z,86.47
2022-10-14T20:26:47.492Z,97.43
2022-10-14T20:29:14.141Z,84.47
2022-10-14T20:31:40.528Z,74.15
2022-10-14T20:34:10.418Z,80.75
2022-10-14T20:36:37.881Z,77.85
2022-10-14T20:39:04.338Z,84.25
2022-10-14T20:41:30.769Z,82.63
2022-10-14T20:43:57.317Z,79.47
2022-10-14T20:46:25.118Z,79.80
2022-10-14T20:48:58.118Z,71.47
2022-10-14T20:51:24.705Z,73.43
2022-10-14T20:54:00.380Z,80.10
2022-10-14T20:56:31.200Z,82.63
2022-10-14T20:58:59.766Z,79.35
2022-10-14T21:01:28.324Z,94.40
2022-10-14T21:03:56.040Z,82.68
2022-10-14T21:06:24.392Z,85.40
2022-10-14T21:08:51.775Z,79.03
2022-10-14T21:11:23.427Z,82.30
2022-10-14T21:13:54.906Z,80.18
2022-10-14T21:16:35.759Z,91.22
2022-10-14T21:19:07.768Z,81.75
2022-10-14T21:21:39.709Z,79.65
2022-10-14T21:24:07.009Z,80.72
2022-10-14T21:26:33.538Z,91.68
2022-10-14T21:29:02.177Z,105.00
2022-10-14T21:31:28.639Z,96.95
2022-10-14T21:34:01.127Z,84.82
2022-10-14T21:36:29.332Z,92.88
2022-10-14T21:38:57.086Z,76.50
2022-10-14T21:41:27.783Z,91.97
2022-10-14T21:43:58.717Z,83.55
2022-10-14T21:46:25.891Z,85.90
2022-10-14T21:48:57.148Z,96.95
2022-10-14T21:51:26.133Z,92.78
2022-10-14T21:53:52.597Z,98.18
2022-10-14T21:56:19.434Z,94.47
2022-10-14T21:58:45.858Z,88.07
2022-10-14T22:01:17.288Z,74.95
2022-10-14T22:03:44.669Z,86.70
2022-10-14T22:06:15.981Z,84.15
2022-10-14T22:08:45.769Z,86.80
2022-10-14T22:11:21.817Z,90.72
2022-10-14T22:13:49.303Z,99.22
2022-10-14T22:16:19.578Z,93.85
2022-10-14T22:18:47.655Z,86.20
2022-10-14T22:21:16.310Z,94.22
2022-10-14T22:23:43.255Z,106.13
2022-10-14T22:26:13.008Z,95.53
2022-10-14T22:28:40.170Z,83.75
2022-10-14T22:31:11.849Z,95.85
2022-10-14T22:33:39.699Z,92.13
2022-10-14T22:36:14.405Z,85.65
2022-10-14T22:38:43.659Z,88.43
2022-10-14T22:41:12.009Z,119.15
2022-10-14T22:43:39.137Z,82.15
2022-10-14T22:46:10.167Z,85.40
2022-10-14T22:48:37.036Z,83.47
2022-10-14T22:51:08.708Z,83.88
2022-10-14T22:53:35.613Z,81.47
2022-10-14T22:56:02.960Z,87.25
2022-10-14T22:58:29.435Z,74.75
2022-10-14T23:00:55.968Z,87.68
2022-10-14T23:03:22.517Z,86.05
2022-10-14T23:05:48.933Z,85.82
2022-10-14T23:08:15.567Z,80.97
2022-10-14T23:10:42.626Z,79.13
2022-10-14T23:13:09.488Z,83.70
2022-10-14T23:15:36.344Z,82.32
2022-10-14T23:18:03.412Z,92.03
2022-10-14T23:20:33.075Z,86.57
2022-10-14T23:22:59.467Z,88.55
2022-10-14T23:25:25.867Z,87.85
2022-10-14T23:27:52.255Z,80.28
2022-10-14T23:30:18.726Z,86.88
2022-10-14T23:32:45.106Z,73.45
2022-10-14T23:35:11.511Z,91.05
2022-10-14T23:37:37.922Z,89.65
2022-10-14T23:40:04.847Z,87.07
2022-10-14T23:42:31.284Z,96.70
2022-10-14T23:44:57.770Z,90.97
2022-10-14T23:47:24.484Z,85.43
2022-10-14T23:49:51.154Z,85.07
2022-10-14T23:52:17.564Z,82.72
2022-10-14T23:54:44.016Z,88.15
2022-10-14T23:57:10.457Z,82.30
2022-10-14T23:59:36.865Z,88.43
